sensor_id;sensor_type;location;lat;lon;timestamp;pressure;altitude;pressure_sealevel;temperature;humidity
60228;BME280;46091;46.512;6.626;2023-02-17T00:00:34;98135.09;;;10.91;48.17
60228;BME280;46091;46.512;6.626;2023-02-17T00:02:41;98140.22;;;10.93;47.99
60228;BME280;46091;46.512;6.626;2023-02-17T00:04:43;98143.69;;;10.93;48.43
60228;BME280;46091;46.512;6.626;2023-02-17T00:06:46;98138.41;;;10.93;48.12
60228;BME280;46091;46.512;6.626;2023-02-17T00:08:49;98145.34;;;10.94;48.23
60228;BME280;46091;46.512;6.626;2023-02-17T00:10:56;98141.72;;;10.95;47.89
60228;BME280;46091;46.512;6.626;2023-02-17T00:12:59;98147.53;;;10.99;48.07
60228;BME280;46091;46.512;6.626;2023-02-17T00:15:01;98148.34;;;10.99;48.02
60228;BME280;46091;46.512;6.626;2023-02-17T00:17:04;98148.34;;;10.99;48.19
60228;BME280;46091;46.512;6.626;2023-02-17T00:19:11;98141.25;;;11.00;47.82
60228;BME280;46091;46.512;6.626;2023-02-17T00:21:28;98144.53;;;11.02;47.97
60228;BME280;46091;46.512;6.626;2023-02-17T00:23:31;98146.03;;;11.04;47.88
60228;BME280;46091;46.512;6.626;2023-02-17T00:25:36;98137.94;;;11.06;47.72
60228;BME280;46091;46.512;6.626;2023-02-17T00:27:39;98147.34;;;11.08;47.87
60228;BME280;46091;46.512;6.626;2023-02-17T00:29:42;98151.00;;;11.07;47.81
60228;BME280;46091;46.512;6.626;2023-02-17T00:31:46;98145.53;;;11.09;48.05
60228;BME280;46091;46.512;6.626;2023-02-17T00:33:53;98148.34;;;11.07;47.88
60228;BME280;46091;46.512;6.626;2023-02-17T00:35:57;98157.09;;;11.08;47.96
60228;BME280;46091;46.512;6.626;2023-02-17T00:38:00;98149.16;;;11.08;47.63
60228;BME280;46091;46.512;6.626;2023-02-17T00:40:03;98157.81;;;11.10;47.72
60228;BME280;46091;46.512;6.626;2023-02-17T00:42:05;98153.47;;;11.09;47.86
60228;BME280;46091;46.512;6.626;2023-02-17T00:44:14;98161.41;;;11.09;47.87
60228;BME280;46091;46.512;6.626;2023-02-17T00:46:17;98166.56;;;11.11;47.78
60228;BME280;46091;46.512;6.626;2023-02-17T00:48:20;98163.94;;;11.11;47.60
60228;BME280;46091;46.512;6.626;2023-02-17T00:50:24;98172.34;;;11.14;47.73
60228;BME280;46091;46.512;6.626;2023-02-17T00:52:28;98166.22;;;11.14;47.52
60228;BME280;46091;46.512;6.626;2023-02-17T00:54:30;98161.59;;;11.16;47.87
60228;BME280;46091;46.512;6.626;2023-02-17T00:56:33;98158.78;;;11.17;47.86
60228;BME280;46091;46.512;6.626;2023-02-17T00:58:36;98158.63;;;11.19;47.74
60228;BME280;46091;46.512;6.626;2023-02-17T01:00:39;98157.63;;;11.20;47.62
60228;BME280;46091;46.512;6.626;2023-02-17T01:02:42;98156.63;;;11.21;47.78
60228;BME280;46091;46.512;6.626;2023-02-17T01:04:45;98158.31;;;11.22;47.59
60228;BME280;46091;46.512;6.626;2023-02-17T01:06:49;98163.59;;;11.22;47.80
60228;BME280;46091;46.512;6.626;2023-02-17T01:08:53;98152.31;;;11.20;47.48
60228;BME280;46091;46.512;6.626;2023-02-17T01:10:56;98154.84;;;11.21;47.75
60228;BME280;46091;46.512;6.626;2023-02-17T01:12:59;98159.28;;;11.21;47.68
60228;BME280;46091;46.512;6.626;2023-02-17T01:15:01;98158.97;;;11.24;47.67
60228;BME280;46091;46.512;6.626;2023-02-17T01:17:04;98163.28;;;11.25;47.77
60228;BME280;46091;46.512;6.626;2023-02-17T01:19:10;98163.28;;;11.25;47.86
60228;BME280;46091;46.512;6.626;2023-02-17T01:21:15;98158.16;;;11.23;47.57
60228;BME280;46091;46.512;6.626;2023-02-17T01:23:18;98158.16;;;11.23;47.84
60228;BME280;46091;46.512;6.626;2023-02-17T01:25:22;98163.28;;;11.25;47.72
60228;BME280;46091;46.512;6.626;2023-02-17T01:27:25;98157.97;;;11.25;47.78
60228;BME280;46091;46.512;6.626;2023-02-17T01:29:28;98159.63;;;11.26;47.55
60228;BME280;46091;46.512;6.626;2023-02-17T01:31:31;98157.97;;;11.25;47.73
60228;BME280;46091;46.512;6.626;2023-02-17T01:33:35;98156.16;;;11.25;47.51
60228;BME280;46091;46.512;6.626;2023-02-17T01:35:38;98154.66;;;11.23;47.20
60228;BME280;46091;46.512;6.626;2023-02-17T01:37:42;98152.69;;;11.25;47.40
60228;BME280;46091;46.512;6.626;2023-02-17T01:39:45;98158.97;;;11.24;47.36
60228;BME280;46091;46.512;6.626;2023-02-17T01:41:49;98153.69;;;11.24;47.61
60228;BME280;46091;46.512;6.626;2023-02-17T01:44:04;98153.69;;;11.24;47.45
60228;BME280;46091;46.512;6.626;2023-02-17T01:46:08;98152.03;;;11.23;47.29
60228;BME280;46091;46.512;6.626;2023-02-17T01:48:13;98147.72;;;11.22;47.38
60228;BME280;46091;46.512;6.626;2023-02-17T01:50:22;98145.22;;;11.20;47.33
60228;BME280;46091;46.512;6.626;2023-02-17T01:52:26;98150.84;;;11.17;47.59
60228;BME280;46091;46.512;6.626;2023-02-17T01:54:33;98150.03;;;11.17;47.13
60228;BME280;46091;46.512;6.626;2023-02-17T01:56:40;98145.38;;;11.19;47.41
60228;BME280;46091;46.512;6.626;2023-02-17T01:58:49;98132.66;;;11.22;47.34
60228;BME280;46091;46.512;6.626;2023-02-17T02:00:58;98127.03;;;11.25;47.09
60228;BME280;46091;46.512;6.626;2023-02-17T02:03:03;98133.50;;;11.23;47.28
60228;BME280;46091;46.512;6.626;2023-02-17T02:05:10;98144.09;;;11.23;47.17
60228;BME280;46091;46.512;6.626;2023-02-17T02:07:17;98142.56;;;11.20;47.10
60228;BME280;46091;46.512;6.626;2023-02-17T02:09:23;98147.19;;;11.18;47.19
60228;BME280;46091;46.512;6.626;2023-02-17T02:11:30;98152.50;;;11.18;46.91
60228;BME280;46091;46.512;6.626;2023-02-17T02:13:33;98148.03;;;11.19;47.16
60228;BME280;46091;46.512;6.626;2023-02-17T02:15:43;98145.56;;;11.17;47.22
60228;BME280;46091;46.512;6.626;2023-02-17T02:18:12;98142.25;;;11.15;47.26
60228;BME280;46091;46.512;6.626;2023-02-17T02:20:28;98144.22;;;11.13;47.19
60228;BME280;46091;46.512;6.626;2023-02-17T02:23:06;98141.06;;;11.09;47.02
60228;BME280;46091;46.512;6.626;2023-02-17T02:25:25;98132.81;;;11.04;46.94
60228;BME280;46091;46.512;6.626;2023-02-17T02:27:45;98139.09;;;11.03;47.36
60228;BME280;46091;46.512;6.626;2023-02-17T02:30:04;98136.59;;;11.02;47.20
60228;BME280;46091;46.512;6.626;2023-02-17T02:32:25;98134.63;;;11.04;47.18
60228;BME280;46091;46.512;6.626;2023-02-17T02:34:34;98135.28;;;11.06;47.14
60228;BME280;46091;46.512;6.626;2023-02-17T02:36:44;98137.44;;;11.02;47.37
60228;BME280;46091;46.512;6.626;2023-02-17T02:38:52;98141.06;;;11.01;47.27
60228;BME280;46091;46.512;6.626;2023-02-17T02:41:04;98139.44;;;11.00;46.99
60228;BME280;46091;46.512;6.626;2023-02-17T02:43:09;98141.25;;;11.00;47.42
60228;BME280;46091;46.512;6.626;2023-02-17T02:45:16;98143.06;;;10.99;47.20
60228;BME280;46091;46.512;6.626;2023-02-17T02:47:42;98144.03;;;10.98;47.45
60228;BME280;46091;46.512;6.626;2023-02-17T02:49:45;98129.97;;;10.98;47.19
60228;BME280;46091;46.512;6.626;2023-02-17T02:51:53;98134.13;;;11.00;47.14
60228;BME280;46091;46.512;6.626;2023-02-17T02:54:15;98132.16;;;11.02;47.47
60228;BME280;46091;46.512;6.626;2023-02-17T02:56:39;98131.97;;;11.04;46.83
60228;BME280;46091;46.512;6.626;2023-02-17T02:58:48;98133.78;;;11.03;47.03
60228;BME280;46091;46.512;6.626;2023-02-17T03:00:56;98132.97;;;11.03;47.00
60228;BME280;46091;46.512;6.626;2023-02-17T03:03:07;98137.09;;;11.05;47.32
60228;BME280;46091;46.512;6.626;2023-02-17T03:05:15;98133.78;;;11.03;47.34
60228;BME280;46091;46.512;6.626;2023-02-17T03:07:26;98136.44;;;11.03;47.04
60228;BME280;46091;46.512;6.626;2023-02-17T03:09:30;98139.09;;;11.03;47.22
60228;BME280;46091;46.512;6.626;2023-02-17T03:11:33;98139.09;;;11.03;47.18
60228;BME280;46091;46.512;6.626;2023-02-17T03:13:36;98139.75;;;11.05;46.85
60228;BME280;46091;46.512;6.626;2023-02-17T03:15:40;98138.59;;;11.08;47.04
60228;BME280;46091;46.512;6.626;2023-02-17T03:17:43;98131.47;;;11.08;47.17
60228;BME280;46091;46.512;6.626;2023-02-17T03:19:47;98132.31;;;11.09;47.08
60228;BME280;46091;46.512;6.626;2023-02-17T03:21:54;98127.00;;;11.09;47.21
60228;BME280;46091;46.512;6.626;2023-02-17T03:23:58;98125.53;;;11.06;47.06
60228;BME280;46091;46.512;6.626;2023-02-17T03:26:01;98132.63;;;11.06;46.93
60228;BME280;46091;46.512;6.626;2023-02-17T03:28:04;98127.84;;;11.09;46.83
60228;BME280;46091;46.512;6.626;2023-02-17T03:30:08;98129.53;;;11.11;46.77
60228;BME280;46091;46.512;6.626;2023-02-17T03:32:11;98134.47;;;11.14;46.69
60228;BME280;46091;46.512;6.626;2023-02-17T03:34:14;98129.34;;;11.12;46.77
60228;BME280;46091;46.512;6.626;2023-02-17T03:36:18;98120.88;;;11.08;46.76
60228;BME280;46091;46.512;6.626;2023-02-17T03:38:21;98125.88;;;11.12;46.65
60228;BME280;46091;46.512;6.626;2023-02-17T03:40:24;98120.75;;;11.10;46.35
60228;BME280;46091;46.512;6.626;2023-02-17T03:42:27;98124.22;;;11.11;46.33
60228;BME280;46091;46.512;6.626;2023-02-17T03:44:30;98124.22;;;11.11;46.46
60228;BME280;46091;46.512;6.626;2023-02-17T03:46:33;98130.47;;;11.09;46.46
60228;BME280;46091;46.512;6.626;2023-02-17T03:48:36;98129.81;;;11.07;46.20
60228;BME280;46091;46.512;6.626;2023-02-17T03:50:39;98131.47;;;11.08;46.39
60228;BME280;46091;46.512;6.626;2023-02-17T03:52:43;98130.81;;;11.06;46.56
60228;BME280;46091;46.512;6.626;2023-02-17T03:54:46;98138.75;;;11.06;46.54
60228;BME280;46091;46.512;6.626;2023-02-17T03:56:49;98140.75;;;11.04;46.29
60228;BME280;46091;46.512;6.626;2023-02-17T03:58:52;98137.94;;;11.06;46.43
60228;BME280;46091;46.512;6.626;2023-02-17T04:00:55;98138.91;;;11.05;46.33
60228;BME280;46091;46.512;6.626;2023-02-17T04:02:58;98140.75;;;11.04;46.30
60228;BME280;46091;46.512;6.626;2023-02-17T04:05:00;98132.16;;;11.02;46.34
60228;BME280;46091;46.512;6.626;2023-02-17T04:07:03;98140.75;;;11.04;46.12
60228;BME280;46091;46.512;6.626;2023-02-17T04:09:08;98130.16;;;11.04;46.17
60228;BME280;46091;46.512;6.626;2023-02-17T04:11:11;98132.63;;;11.06;46.31
60228;BME280;46091;46.512;6.626;2023-02-17T04:13:34;98131.81;;;11.05;46.47
60228;BME280;46091;46.512;6.626;2023-02-17T04:15:42;98139.09;;;11.03;46.24
60228;BME280;46091;46.512;6.626;2023-02-17T04:17:45;98133.78;;;11.03;46.23
60228;BME280;46091;46.512;6.626;2023-02-17T04:19:48;98136.44;;;11.03;46.03
60228;BME280;46091;46.512;6.626;2023-02-17T04:21:50;98142.72;;;11.02;46.38
60228;BME280;46091;46.512;6.626;2023-02-17T04:23:53;98148.03;;;11.02;45.97
60228;BME280;46091;46.512;6.626;2023-02-17T04:25:57;98151.31;;;11.04;46.06
60228;BME280;46091;46.512;6.626;2023-02-17T04:28:00;98155.63;;;11.05;46.25
60228;BME280;46091;46.512;6.626;2023-02-17T04:30:04;98144.03;;;11.06;46.37
60228;BME280;46091;46.512;6.626;2023-02-17T04:32:08;98145.69;;;11.07;46.14
60228;BME280;46091;46.512;6.626;2023-02-17T04:34:11;98146.69;;;11.06;46.24
60228;BME280;46091;46.512;6.626;2023-02-17T04:36:14;98138.91;;;11.05;45.94
60228;BME280;46091;46.512;6.626;2023-02-17T04:38:17;98152.97;;;11.05;46.21
60228;BME280;46091;46.512;6.626;2023-02-17T04:40:20;98145.22;;;11.04;46.17
60228;BME280;46091;46.512;6.626;2023-02-17T04:42:24;98145.22;;;11.04;45.99
60228;BME280;46091;46.512;6.626;2023-02-17T04:44:27;98135.44;;;11.04;46.11
60228;BME280;46091;46.512;6.626;2023-02-17T04:46:30;98149.69;;;11.03;46.02
60228;BME280;46091;46.512;6.626;2023-02-17T04:48:33;98146.38;;;11.01;46.25
60228;BME280;46091;46.512;6.626;2023-02-17T04:50:37;98141.06;;;11.01;45.98
60228;BME280;46091;46.512;6.626;2023-02-17T04:52:39;98148.69;;;11.04;45.80
60228;BME280;46091;46.512;6.626;2023-02-17T04:54:42;98150.34;;;11.05;45.89
60228;BME280;46091;46.512;6.626;2023-02-17T04:56:46;98150.50;;;11.04;46.32
60228;BME280;46091;46.512;6.626;2023-02-17T04:58:50;98146.66;;;10.98;46.19
60228;BME280;46091;46.512;6.626;2023-02-17T05:00:53;98153.66;;;10.99;45.81
60228;BME280;46091;46.512;6.626;2023-02-17T05:02:56;98158.94;;;10.99;45.87
60228;BME280;46091;46.512;6.626;2023-02-17T05:04:59;98147.53;;;10.99;46.22
60228;BME280;46091;46.512;6.626;2023-02-17T05:07:02;98151.13;;;10.98;46.02
60228;BME280;46091;46.512;6.626;2023-02-17T05:09:05;98151.97;;;10.98;46.14
60228;BME280;46091;46.512;6.626;2023-02-17T05:11:08;98151.31;;;10.96;46.39
60228;BME280;46091;46.512;6.626;2023-02-17T05:13:10;98150.47;;;10.96;46.13
60228;BME280;46091;46.512;6.626;2023-02-17T05:15:15;98147.81;;;10.96;46.05
60228;BME280;46091;46.512;6.626;2023-02-17T05:17:17;98147.66;;;10.97;46.21
60228;BME280;46091;46.512;6.626;2023-02-17T05:19:20;98148.66;;;10.96;46.32
60228;BME280;46091;46.512;6.626;2023-02-17T05:21:23;98144.53;;;10.94;46.00
60228;BME280;46091;46.512;6.626;2023-02-17T05:23:26;98146.19;;;10.95;46.53
60228;BME280;46091;46.512;6.626;2023-02-17T05:25:33;98155.78;;;10.96;46.13
60228;BME280;46091;46.512;6.626;2023-02-17T05:27:37;98144.19;;;10.97;46.19
60228;BME280;46091;46.512;6.626;2023-02-17T05:29:40;98150.19;;;10.99;45.87
60228;BME280;46091;46.512;6.626;2023-02-17T05:31:44;98145.53;;;11.01;46.20
60228;BME280;46091;46.512;6.626;2023-02-17T05:33:47;98150.00;;;11.00;45.90
60228;BME280;46091;46.512;6.626;2023-02-17T07:50:55;98234.03;;;9.51;54.52
60228;BME280;46091;46.512;6.626;2023-02-17T07:52:59;98226.03;;;9.78;54.13
60228;BME280;46091;46.512;6.626;2023-02-17T07:55:02;98235.47;;;10.07;53.89
60228;BME280;46091;46.512;6.626;2023-02-17T07:57:05;98240.44;;;10.28;53.92
60228;BME280;46091;46.512;6.626;2023-02-17T07:59:08;98237.09;;;10.43;53.70
60228;BME280;46091;46.512;6.626;2023-02-17T08:01:13;98230.69;;;10.54;53.71
60228;BME280;46091;46.512;6.626;2023-02-17T08:03:18;98229.06;;;10.61;53.42
60228;BME280;46091;46.512;6.626;2023-02-17T08:05:20;98239.53;;;10.71;53.51
60228;BME280;46091;46.512;6.626;2023-02-17T08:07:25;98243.19;;;10.78;53.82
60228;BME280;46091;46.512;6.626;2023-02-17T08:09:27;98239.06;;;10.84;53.41
60228;BME280;46091;46.512;6.626;2023-02-17T08:11:48;98238.28;;;10.91;53.55
60228;BME280;46091;46.512;6.626;2023-02-17T08:14:08;98244.44;;;11.00;53.16
60228;BME280;46091;46.512;6.626;2023-02-17T08:16:13;98244.63;;;11.06;53.15
60228;BME280;46091;46.512;6.626;2023-02-17T08:18:17;98243.66;;;11.16;53.19
60228;BME280;46091;46.512;6.626;2023-02-17T08:20:19;98245.66;;;11.22;53.35
60228;BME280;46091;46.512;6.626;2023-02-17T08:22:22;98244.00;;;11.29;53.37
60228;BME280;46091;46.512;6.626;2023-02-17T08:24:26;98245.38;;;11.33;53.26
60228;BME280;46091;46.512;6.626;2023-02-17T08:26:30;98236.91;;;11.37;52.88
60228;BME280;46091;46.512;6.626;2023-02-17T08:28:33;98236.41;;;11.42;52.95
60228;BME280;46091;46.512;6.626;2023-02-17T08:30:36;98236.13;;;11.45;52.95
60228;BME280;46091;46.512;6.626;2023-02-17T08:32:39;98240.41;;;11.46;52.90
60228;BME280;46091;46.512;6.626;2023-02-17T08:34:42;98244.38;;;11.50;52.75
60228;BME280;46091;46.512;6.626;2023-02-17T08:36:45;98247.84;;;11.51;52.83
60228;BME280;46091;46.512;6.626;2023-02-17T08:38:48;98241.41;;;11.53;52.82
60228;BME280;46091;46.512;6.626;2023-02-17T08:40:53;98247.38;;;11.55;52.78
60228;BME280;46091;46.512;6.626;2023-02-17T08:42:56;98244.41;;;11.58;52.66
60228;BME280;46091;46.512;6.626;2023-02-17T08:44:58;98243.41;;;11.59;52.53
60228;BME280;46091;46.512;6.626;2023-02-17T08:47:03;98240.44;;;11.62;52.85
60228;BME280;46091;46.512;6.626;2023-02-17T08:49:06;98240.25;;;11.64;52.58
60228;BME280;46091;46.512;6.626;2023-02-17T08:51:11;98248.03;;;11.65;52.66
60228;BME280;46091;46.512;6.626;2023-02-17T08:53:14;98259.31;;;11.68;52.50
60228;BME280;46091;46.512;6.626;2023-02-17T08:55:17;98256.66;;;11.68;52.29
60228;BME280;46091;46.512;6.626;2023-02-17T08:57:23;98257.16;;;11.71;52.31
60228;BME280;46091;46.512;6.626;2023-02-17T08:59:27;98257.66;;;11.75;52.37
60228;BME280;46091;46.512;6.626;2023-02-17T09:01:30;98264.59;;;11.76;52.22
60228;BME280;46091;46.512;6.626;2023-02-17T09:03:34;98265.59;;;11.75;52.29
60228;BME280;46091;46.512;6.626;2023-02-17T09:05:38;98272.53;;;11.76;52.21
60228;BME280;46091;46.512;6.626;2023-02-17T09:07:41;98265.25;;;11.78;51.96
60228;BME280;46091;46.512;6.626;2023-02-17T09:09:44;98267.81;;;11.79;52.02
60228;BME280;46091;46.512;6.626;2023-02-17T09:11:49;98271.41;;;11.78;52.00
60228;BME280;46091;46.512;6.626;2023-02-17T09:13:54;98264.28;;;11.79;51.86
60228;BME280;46091;46.512;6.626;2023-02-17T09:15:57;98270.28;;;11.81;51.91
60228;BME280;46091;46.512;6.626;2023-02-17T09:18:00;98268.28;;;11.83;51.66
60228;BME280;46091;46.512;6.626;2023-02-17T09:20:05;98267.63;;;11.81;51.54
60228;BME280;46091;46.512;6.626;2023-02-17T09:22:24;98274.41;;;11.83;51.67
60228;BME280;46091;46.512;6.626;2023-02-17T09:24:32;98279.22;;;11.88;51.74
60228;BME280;46091;46.512;6.626;2023-02-17T09:26:39;98276.25;;;11.91;51.28
60228;BME280;46091;46.512;6.626;2023-02-17T09:28:42;98287.50;;;11.93;51.41
60228;BME280;46091;46.512;6.626;2023-02-17T09:30:47;98290.00;;;11.94;50.95
60228;BME280;46091;46.512;6.626;2023-02-17T09:32:51;98280.03;;;11.97;51.27
60228;BME280;46091;46.512;6.626;2023-02-17T09:34:53;98286.69;;;12.01;50.98
60228;BME280;46091;46.512;6.626;2023-02-17T09:36:59;98290.81;;;12.03;50.55
60228;BME280;46091;46.512;6.626;2023-02-17T09:39:03;98291.31;;;12.07;50.63
60228;BME280;46091;46.512;6.626;2023-02-17T09:41:15;98301.56;;;12.10;50.53
60228;BME280;46091;46.512;6.626;2023-02-17T09:43:24;98302.75;;;12.15;50.34
60228;BME280;46091;46.512;6.626;2023-02-17T09:45:31;98296.47;;;12.16;50.38
60228;BME280;46091;46.512;6.626;2023-02-17T09:47:42;98293.97;;;12.15;50.33
60228;BME280;46091;46.512;6.626;2023-02-17T09:49:47;98296.63;;;12.15;50.17
60228;BME280;46091;46.512;6.626;2023-02-17T09:51:57;98303.41;;;12.17;50.40
60228;BME280;46091;46.512;6.626;2023-02-17T09:54:03;98308.38;;;12.20;50.18
60228;BME280;46091;46.512;6.626;2023-02-17T09:56:11;98289.81;;;12.20;49.97
60228;BME280;46091;46.512;6.626;2023-02-17T09:58:18;98290.63;;;12.21;50.06
60228;BME280;46091;46.512;6.626;2023-02-17T10:00:24;98285.50;;;12.19;50.31
60228;BME280;46091;46.512;6.626;2023-02-17T10:02:33;98277.38;;;12.21;49.65
60228;BME280;46091;46.512;6.626;2023-02-17T10:04:42;98281.84;;;12.20;49.69
60228;BME280;46091;46.512;6.626;2023-02-17T10:06:51;98286.16;;;12.21;49.79
60228;BME280;46091;46.512;6.626;2023-02-17T10:08:59;98288.81;;;12.21;49.59
60228;BME280;46091;46.512;6.626;2023-02-17T10:11:12;98291.81;;;12.27;49.63
60228;BME280;46091;46.512;6.626;2023-02-17T10:13:20;98294.28;;;12.28;49.39
60228;BME280;46091;46.512;6.626;2023-02-17T10:15:25;98299.25;;;12.31;49.68
60228;BME280;46091;46.512;6.626;2023-02-17T10:17:32;98296.13;;;12.36;49.52
60228;BME280;46091;46.512;6.626;2023-02-17T10:19:46;98300.72;;;12.42;49.15
60228;BME280;46091;46.512;6.626;2023-02-17T10:21:56;98302.06;;;12.46;49.37
60228;BME280;46091;46.512;6.626;2023-02-17T10:24:03;98296.06;;;12.52;49.22
60228;BME280;46091;46.512;6.626;2023-02-17T10:26:18;98294.91;;;12.54;48.97
60228;BME280;46091;46.512;6.626;2023-02-17T10:28:35;98303.03;;;12.61;49.12
60228;BME280;46091;46.512;6.626;2023-02-17T10:30:45;98295.72;;;12.63;49.02
60228;BME280;46091;46.512;6.626;2023-02-17T10:33:01;98304.16;;;12.67;48.97
60228;BME280;46091;46.512;6.626;2023-02-17T10:35:16;98295.06;;;12.69;48.79
60228;BME280;46091;46.512;6.626;2023-02-17T10:37:25;98290.22;;;12.73;48.58
60228;BME280;46091;46.512;6.626;2023-02-17T10:39:42;98291.72;;;12.75;48.56
60228;BME280;46091;46.512;6.626;2023-02-17T10:41:50;98295.19;;;12.76;48.60
60228;BME280;46091;46.512;6.626;2023-02-17T10:43:58;98288.06;;;12.76;48.27
60228;BME280;46091;46.512;6.626;2023-02-17T10:46:05;98296.19;;;12.75;48.18
60228;BME280;46091;46.512;6.626;2023-02-17T10:48:12;98286.41;;;12.75;48.17
60228;BME280;46091;46.512;6.626;2023-02-17T10:50:20;98282.09;;;12.74;47.82
60228;BME280;46091;46.512;6.626;2023-02-17T10:52:32;98280.28;;;12.75;47.84
60228;BME280;46091;46.512;6.626;2023-02-17T10:54:41;98281.75;;;12.77;47.93
60228;BME280;46091;46.512;6.626;2023-02-17T10:56:47;98276.78;;;12.82;47.93
60228;BME280;46091;46.512;6.626;2023-02-17T10:58:54;98280.72;;;12.87;47.76
60228;BME280;46091;46.512;6.626;2023-02-17T11:00:59;98277.91;;;12.88;47.71
60228;BME280;46091;46.512;6.626;2023-02-17T11:03:03;98280.22;;;12.91;47.70
60228;BME280;46091;46.512;6.626;2023-02-17T11:05:06;98276.72;;;12.91;47.31
60228;BME280;46091;46.512;6.626;2023-02-17T11:07:14;98272.09;;;12.93;47.16
60228;BME280;46091;46.512;6.626;2023-02-17T11:09:19;98275.75;;;12.92;47.37
60228;BME280;46091;46.512;6.626;2023-02-17T11:11:24;98273.75;;;12.86;47.18
60228;BME280;46091;46.512;6.626;2023-02-17T11:13:33;98273.47;;;12.80;46.95
60228;BME280;46091;46.512;6.626;2023-02-17T11:15:42;98261.34;;;12.78;46.98
60228;BME280;46091;46.512;6.626;2023-02-17T11:17:46;98253.56;;;12.76;46.83
60228;BME280;46091;46.512;6.626;2023-02-17T11:19:55;98259.88;;;12.75;46.54
60228;BME280;46091;46.512;6.626;2023-02-17T11:22:00;98250.06;;;12.76;46.60
60228;BME280;46091;46.512;6.626;2023-02-17T11:24:05;98248.91;;;12.78;46.46
60228;BME280;46091;46.512;6.626;2023-02-17T11:26:16;98250.41;;;12.81;46.35
60228;BME280;46091;46.512;6.626;2023-02-17T11:28:21;98246.56;;;12.83;46.41
60228;BME280;46091;46.512;6.626;2023-02-17T11:30:27;98237.78;;;12.83;46.16
60228;BME280;46091;46.512;6.626;2023-02-17T11:32:31;98227.81;;;12.85;46.20
60228;BME280;46091;46.512;6.626;2023-02-17T11:34:38;98219.34;;;12.90;45.81
60228;BME280;46091;46.512;6.626;2023-02-17T11:36:43;98214.69;;;12.92;46.02
60228;BME280;46091;46.512;6.626;2023-02-17T11:38:46;98220.66;;;12.94;45.87
60228;BME280;46091;46.512;6.626;2023-02-17T11:40:56;98215.34;;;12.94;45.53
60228;BME280;46091;46.512;6.626;2023-02-17T11:43:01;98210.50;;;12.97;45.60
60228;BME280;46091;46.512;6.626;2023-02-17T11:45:16;98202.38;;;12.99;45.24
60228;BME280;46091;46.512;6.626;2023-02-17T11:47:28;98199.72;;;12.99;45.25
60228;BME280;46091;46.512;6.626;2023-02-17T11:50:15;98187.75;;;13.03;45.48
60228;BME280;46091;46.512;6.626;2023-02-17T11:52:43;98182.94;;;13.06;45.30
60228;BME280;46091;46.512;6.626;2023-02-17T11:55:04;98192.72;;;13.06;45.28
60228;BME280;46091;46.512;6.626;2023-02-17T11:57:21;98196.84;;;13.08;44.88
60228;BME280;46091;46.512;6.626;2023-02-17T11:59:37;98186.22;;;13.08;44.89
60228;BME280;46091;46.512;6.626;2023-02-17T12:01:57;98193.00;;;13.11;44.83
60228;BME280;46091;46.512;6.626;2023-02-17T12:04:23;98188.00;;;13.16;44.55
60228;BME280;46091;46.512;6.626;2023-02-17T12:06:36;98176.38;;;13.17;44.73
60228;BME280;46091;46.512;6.626;2023-02-17T12:08:52;98163.94;;;13.18;44.43
60228;BME280;46091;46.512;6.626;2023-02-17T12:11:07;98165.25;;;13.22;44.32
60228;BME280;46091;46.512;6.626;2023-02-17T12:13:22;98171.41;;;13.22;44.48
60228;BME280;46091;46.512;6.626;2023-02-17T12:15:39;98169.75;;;13.21;44.68
60228;BME280;46091;46.512;6.626;2023-02-17T12:17:54;98164.44;;;13.21;44.42
60228;BME280;46091;46.512;6.626;2023-02-17T12:20:30;98165.09;;;13.23;44.48
60228;BME280;46091;46.512;6.626;2023-02-17T12:22:44;98160.44;;;13.25;44.68
60228;BME280;46091;46.512;6.626;2023-02-17T12:25:00;98163.75;;;13.27;44.68
60228;BME280;46091;46.512;6.626;2023-02-17T12:27:10;98155.78;;;13.27;44.54
60228;BME280;46091;46.512;6.626;2023-02-17T12:29:32;98156.59;;;13.28;44.45
60228;BME280;46091;46.512;6.626;2023-02-17T12:31:55;98158.63;;;13.26;44.87
60228;BME280;46091;46.512;6.626;2023-02-17T12:34:08;98151.81;;;13.23;44.85
60228;BME280;46091;46.512;6.626;2023-02-17T12:36:18;98150.66;;;13.26;44.99
60228;BME280;46091;46.512;6.626;2023-02-17T12:38:24;98152.28;;;13.27;44.85
60228;BME280;46091;46.512;6.626;2023-02-17T12:40:33;98148.44;;;13.29;44.64
60228;BME280;46091;46.512;6.626;2023-02-17T12:42:51;98151.94;;;13.30;44.95
60228;BME280;46091;46.512;6.626;2023-02-17T12:45:01;98148.09;;;13.32;44.94
60228;BME280;46091;46.512;6.626;2023-02-17T12:47:10;98151.22;;;13.36;44.92
60228;BME280;46091;46.512;6.626;2023-02-17T12:49:18;98151.56;;;13.33;44.64
60228;BME280;46091;46.512;6.626;2023-02-17T12:51:26;98160.03;;;13.36;44.75
60228;BME280;46091;46.512;6.626;2023-02-17T12:53:39;98143.72;;;13.39;44.65
60228;BME280;46091;46.512;6.626;2023-02-17T12:55:47;98144.84;;;13.45;44.39
60228;BME280;46091;46.512;6.626;2023-02-17T12:57:54;98145.31;;;13.49;44.46
60228;BME280;46091;46.512;6.626;2023-02-17T13:00:00;98141.66;;;13.50;44.10
60228;BME280;46091;46.512;6.626;2023-02-17T13:02:08;98135.16;;;13.52;44.21
60228;BME280;46091;46.512;6.626;2023-02-17T13:04:17;98137.63;;;13.54;43.97
60228;BME280;46091;46.512;6.626;2023-02-17T13:06:22;98137.25;;;13.57;43.77
60228;BME280;46091;46.512;6.626;2023-02-17T13:08:33;98142.25;;;13.60;43.79
60228;BME280;46091;46.512;6.626;2023-02-17T13:10:39;98134.09;;;13.61;43.63
60228;BME280;46091;46.512;6.626;2023-02-17T13:12:42;98141.69;;;13.64;43.51
60228;BME280;46091;46.512;6.626;2023-02-17T13:14:58;98136.19;;;13.66;43.21
60228;BME280;46091;46.512;6.626;2023-02-17T13:17:02;98138.84;;;13.66;43.04
60228;BME280;46091;46.512;6.626;2023-02-17T13:19:06;98137.84;;;13.67;43.14
60228;BME280;46091;46.512;6.626;2023-02-17T13:21:26;98139.50;;;13.68;43.29
60228;BME280;46091;46.512;6.626;2023-02-17T13:23:35;98127.84;;;13.69;43.43
60228;BME280;46091;46.512;6.626;2023-02-17T13:25:39;98133.84;;;13.71;42.99
60228;BME280;46091;46.512;6.626;2023-02-17T13:27:43;98134.47;;;13.73;42.95